Fugaku Maru — JH3428 — position and weather

sailwx.info

Track history (hours):
 
Tides and Currents Weather Stations Pressure Air Temp Water Temp Dewpoint Dewpoint Depression Visibility Wind Speed Wind Dir Waves Ship Positions

Fugaku Maru

Last reported at 2015-Jun-26 22:32 UTC. Time now 2015-Jul-01 04:53 UTC.
Position N 35°41' E 140°56'.

Length 165 m; draft 7.2 m.

Type: Cargo ship. MMSI: 431200176.

Date/timePositionNaut miles runAvg speedWind from/ knotsBaromVisibWave heightAir tempDewpointWater temp
2015-Jun-26 22:32N 35°41' E 140°56'2020.3
2015-Jun-26 21:33N 35°24' E 140°44'2221.3
2015-Jun-26 20:32N 35°06' E 140°29'2020.5
2015-Jun-26 19:33N 34°56' E 140°08'2020.2
2015-Jun-26 18:33N 34°45' E 139°47'6119.6
2015-Jun-26 15:27N 34°31' E 138°35'23 1.1
2015-Jun-25 19:19N 34°30' E 138°08'7518.4
2015-Jun-25 15:15N 34°41' E 139°38'1318.2
2015-Jun-25 14:33N 34°46' E 139°52'1818.6
2015-Jun-25 13:33N 34°55' E 140°12'1818.0
2015-Jun-25 12:33N 35°05' E 140°30'1717.4
2015-Jun-25 11:33N 35°19' E 140°42'1716.9
2015-Jun-25 10:33N 35°34' E 140°52'1817.9
2015-Jun-25 09:33N 35°50' E 141°02'5417.8
2015-Jun-25 06:31N 36°44' E 141°07'  
2015-Jun-22 19:33N 35°15' E 140°37'2121.3
2015-Jun-22 18:33N 35°00' E 140°18'2020.3
2015-Jun-22 17:34N 34°49' E 139°58'2420.7
2015-Jun-22 16:24N 34°40' E 139°31'4820.5
2015-Jun-22 14:03N 34°29' E 138°34'27 1.3
2015-Jun-21 18:19N 34°31' E 139°06'3218.2
2015-Jun-21 16:33N 34°43' E 139°42'1818.6
2015-Jun-21 15:33N 34°51' E 140°03'1918.7
2015-Jun-21 14:33N 35°00' E 140°23'1616.0
2015-Jun-21 13:33N 35°11' E 140°37'1615.7
2015-Jun-21 12:33N 35°24' E 140°48'1817.4
2015-Jun-21 11:32N 35°39' E 140°60'1818.1
2015-Jun-21 10:33N 35°56' E 141°03'2117.8
2015-Jun-21 09:22N 36°17' E 141°05'1717.5
2015-Jun-21 08:24N 36°34' E 141°07'  
2015-Jun-18 23:24N 35°54' E 140°59'1719.9
2015-Jun-18 22:32N 35°38' E 140°53'2020.2
2015-Jun-18 21:33N 35°21' E 140°41'2120.8
2015-Jun-18 20:32N 35°05' E 140°23'1919.8
2015-Jun-18 19:33N 34°54' E 140°04'2419.7
2015-Jun-18 18:20N 34°41' E 139°39'5419.3
2015-Jun-18 15:31N 34°29' E 138°34'5 0.2
2015-Jun-17 17:23N 34°27' E 138°29'7018.4
2015-Jun-17 13:33N 34°47' E 139°51'1919.5
2015-Jun-17 12:34N 34°57' E 140°11'1918.6
2015-Jun-17 11:32N 35°06' E 140°31'1817.7
2015-Jun-17 10:33N 35°22' E 140°42'2019.6
2015-Jun-17 09:33N 35°38' E 140°56'2519.7
2015-Jun-17 08:16N 36°01' E 141°05'1519.9
2015-Jun-17 07:31N 36°16' E 141°07'  
Track history (hours):
 
Tides and Currents Weather Stations Pressure Air Temp Water Temp Dewpoint Dewpoint Depression Visibility Wind Speed Wind Dir Waves Ship Positions

Fugaku Maru

Last reported at 2015-Jun-26 22:32 UTC. Time now 2015-Jul-01 04:53 UTC.
Position N 35°41' E 140°56'.

Length 165 m; draft 7.2 m.

Type: Cargo ship. MMSI: 431200176.

Date/timePositionNaut miles runAvg speedWind from/ knotsBaromVisibWave heightAir tempDewpointWater temp
2015-Jun-26 22:32N 35°41' E 140°56'2020.3
2015-Jun-26 21:33N 35°24' E 140°44'2221.3
2015-Jun-26 20:32N 35°06' E 140°29'2020.5
2015-Jun-26 19:33N 34°56' E 140°08'2020.2
2015-Jun-26 18:33N 34°45' E 139°47'6119.6
2015-Jun-26 15:27N 34°31' E 138°35'23 1.1
2015-Jun-25 19:19N 34°30' E 138°08'7518.4
2015-Jun-25 15:15N 34°41' E 139°38'1318.2
2015-Jun-25 14:33N 34°46' E 139°52'1818.6
2015-Jun-25 13:33N 34°55' E 140°12'1818.0
2015-Jun-25 12:33N 35°05' E 140°30'1717.4
2015-Jun-25 11:33N 35°19' E 140°42'1716.9
2015-Jun-25 10:33N 35°34' E 140°52'1817.9
2015-Jun-25 09:33N 35°50' E 141°02'5417.8
2015-Jun-25 06:31N 36°44' E 141°07'  
2015-Jun-22 19:33N 35°15' E 140°37'2121.3
2015-Jun-22 18:33N 35°00' E 140°18'2020.3
2015-Jun-22 17:34N 34°49' E 139°58'2420.7
2015-Jun-22 16:24N 34°40' E 139°31'4820.5
2015-Jun-22 14:03N 34°29' E 138°34'27 1.3
2015-Jun-21 18:19N 34°31' E 139°06'3218.2
2015-Jun-21 16:33N 34°43' E 139°42'1818.6
2015-Jun-21 15:33N 34°51' E 140°03'1918.7
2015-Jun-21 14:33N 35°00' E 140°23'1616.0
2015-Jun-21 13:33N 35°11' E 140°37'1615.7
2015-Jun-21 12:33N 35°24' E 140°48'1817.4
2015-Jun-21 11:32N 35°39' E 140°60'1818.1
2015-Jun-21 10:33N 35°56' E 141°03'2117.8
2015-Jun-21 09:22N 36°17' E 141°05'1717.5
2015-Jun-21 08:24N 36°34' E 141°07'  
2015-Jun-18 23:24N 35°54' E 140°59'1719.9
2015-Jun-18 22:32N 35°38' E 140°53'2020.2
2015-Jun-18 21:33N 35°21' E 140°41'2120.8
2015-Jun-18 20:32N 35°05' E 140°23'1919.8
2015-Jun-18 19:33N 34°54' E 140°04'2419.7
2015-Jun-18 18:20N 34°41' E 139°39'5419.3
2015-Jun-18 15:31N 34°29' E 138°34'5 0.2
2015-Jun-17 17:23N 34°27' E 138°29'7018.4
2015-Jun-17 13:33N 34°47' E 139°51'1919.5
2015-Jun-17 12:34N 34°57' E 140°11'1918.6
2015-Jun-17 11:32N 35°06' E 140°31'1817.7
2015-Jun-17 10:33N 35°22' E 140°42'2019.6
2015-Jun-17 09:33N 35°38' E 140°56'2519.7
2015-Jun-17 08:16N 36°01' E 141°05'1519.9
2015-Jun-17 07:31N 36°16' E 141°07'  

Dump ship's entire track history